sensor_id;sensor_type;location;lat;lon;timestamp;pressure;altitude;pressure_sealevel;temperature;humidity
3260;BME280;22469;48.150;14.004;2022-11-15T00:01:09;98097.47;;;9.29;70.70
3260;BME280;22469;48.150;14.004;2022-11-15T00:03:37;98101.88;;;9.23;70.47
3260;BME280;22469;48.150;14.004;2022-11-15T00:06:05;98095.91;;;9.23;70.47
3260;BME280;22469;48.150;14.004;2022-11-15T00:08:32;98101.00;;;9.24;70.14
3260;BME280;22469;48.150;14.004;2022-11-15T00:11:01;98101.75;;;9.28;70.28
3260;BME280;22469;48.150;14.004;2022-11-15T00:13:30;98091.53;;;9.28;69.96
3260;BME280;22469;48.150;14.004;2022-11-15T00:15:59;98096.66;;;9.28;69.99
3260;BME280;22469;48.150;14.004;2022-11-15T00:18:27;98095.81;;;9.28;69.57
3260;BME280;22469;48.150;14.004;2022-11-15T00:20:56;98090.69;;;9.28;69.69
3260;BME280;22469;48.150;14.004;2022-11-15T00:23:29;98092.44;;;9.25;69.61
3260;BME280;22469;48.150;14.004;2022-11-15T00:25:58;98090.72;;;9.26;69.58
3260;BME280;22469;48.150;14.004;2022-11-15T00:28:26;98092.44;;;9.25;69.49
3260;BME280;22469;48.150;14.004;2022-11-15T00:30:53;98089.94;;;9.24;69.13
3260;BME280;22469;48.150;14.004;2022-11-15T00:33:20;98102.75;;;9.22;69.28
3260;BME280;22469;48.150;14.004;2022-11-15T00:35:47;98102.94;;;9.16;69.13
3260;BME280;22469;48.150;14.004;2022-11-15T00:38:14;98103.91;;;9.11;69.20
3260;BME280;22469;48.150;14.004;2022-11-15T00:40:41;98103.06;;;9.10;69.13
3260;BME280;22469;48.150;14.004;2022-11-15T00:43:08;98111.69;;;9.06;69.53
3260;BME280;22469;48.150;14.004;2022-11-15T00:45:35;98106.72;;;9.00;69.55
3260;BME280;22469;48.150;14.004;2022-11-15T00:48:03;98098.22;;;8.98;69.71
3260;BME280;22469;48.150;14.004;2022-11-15T00:50:30;98099.19;;;8.94;69.86
3260;BME280;22469;48.150;14.004;2022-11-15T00:52:57;98097.59;;;8.90;69.85
3260;BME280;22469;48.150;14.004;2022-11-15T00:55:23;98102.78;;;8.87;69.69
3260;BME280;22469;48.150;14.004;2022-11-15T00:57:50;98094.28;;;8.86;69.82
3260;BME280;22469;48.150;14.004;2022-11-15T01:00:17;98099.44;;;8.83;69.77
3260;BME280;22469;48.150;14.004;2022-11-15T01:02:44;98101.09;;;8.86;69.98
3260;BME280;22469;48.150;14.004;2022-11-15T01:05:11;98096.84;;;8.85;69.92
3260;BME280;22469;48.150;14.004;2022-11-15T01:07:38;98089.16;;;8.85;69.78
3260;BME280;22469;48.150;14.004;2022-11-15T01:10:06;98082.34;;;8.85;69.65
3260;BME280;22469;48.150;14.004;2022-11-15T01:12:34;98086.66;;;8.83;69.54
3260;BME280;22469;48.150;14.004;2022-11-15T01:15:02;98078.09;;;8.84;69.34
3260;BME280;22469;48.150;14.004;2022-11-15T01:17:30;98079.06;;;8.80;69.68
3260;BME280;22469;48.150;14.004;2022-11-15T01:19:57;98078.25;;;8.78;69.62
3260;BME280;22469;48.150;14.004;2022-11-15T01:22:24;98085.09;;;8.77;69.49
3260;BME280;22469;48.150;14.004;2022-11-15T01:24:51;98078.22;;;8.80;69.56
3260;BME280;22469;48.150;14.004;2022-11-15T01:27:18;98079.06;;;8.80;69.60
3260;BME280;22469;48.150;14.004;2022-11-15T01:29:45;98085.09;;;8.77;69.53
3260;BME280;22469;48.150;14.004;2022-11-15T01:32:12;98082.50;;;8.79;69.53
3260;BME280;22469;48.150;14.004;2022-11-15T01:34:39;98074.09;;;8.74;69.52
3260;BME280;22469;48.150;14.004;2022-11-15T01:37:06;98071.66;;;8.69;69.39
3260;BME280;22469;48.150;14.004;2022-11-15T01:39:33;98075.16;;;8.65;69.27
3260;BME280;22469;48.150;14.004;2022-11-15T01:42:00;98068.41;;;8.61;69.40
3260;BME280;22469;48.150;14.004;2022-11-15T01:44:36;98065.84;;;8.61;69.33
3260;BME280;22469;48.150;14.004;2022-11-15T01:49:47;98065.84;;;8.61;69.19
3260;BME280;22469;48.150;14.004;2022-11-15T01:52:19;98066.84;;;8.56;69.27
3260;BME280;22469;48.150;14.004;2022-11-15T01:54:50;98062.66;;;8.53;69.31
3260;BME280;22469;48.150;14.004;2022-11-15T01:57:22;98065.19;;;8.53;69.19
3260;BME280;22469;48.150;14.004;2022-11-15T01:59:49;98056.72;;;8.51;69.07
3260;BME280;22469;48.150;14.004;2022-11-15T02:02:16;98045.69;;;8.49;69.29
3260;BME280;22469;48.150;14.004;2022-11-15T02:04:46;98037.22;;;8.47;69.18
3260;BME280;22469;48.150;14.004;2022-11-15T02:07:16;98042.53;;;8.36;69.42
3260;BME280;22469;48.150;14.004;2022-11-15T02:09:45;98036.03;;;8.23;69.08
3260;BME280;22469;48.150;14.004;2022-11-15T02:12:19;98037.78;;;8.21;69.33
3260;BME280;22469;48.150;14.004;2022-11-15T02:14:52;98042.91;;;8.21;69.19
3260;BME280;22469;48.150;14.004;2022-11-15T02:20:39;98040.31;;;8.22;69.97
3260;BME280;22469;48.150;14.004;2022-11-15T02:23:31;98042.97;;;8.18;69.89
3260;BME280;22469;48.150;14.004;2022-11-15T02:32:07;98032.00;;;8.13;70.08
3260;BME280;22469;48.150;14.004;2022-11-15T02:38:09;98027.88;;;8.07;69.54
3260;BME280;22469;48.150;14.004;2022-11-15T02:41:34;98022.06;;;8.00;70.03
3260;BME280;22469;48.150;14.004;2022-11-15T02:44:01;98025.41;;;8.02;69.96
3260;BME280;22469;48.150;14.004;2022-11-15T02:46:57;98024.66;;;7.97;69.65
3260;BME280;22469;48.150;14.004;2022-11-15T02:49:50;98030.16;;;7.79;69.89
3260;BME280;22469;48.150;14.004;2022-11-15T02:52:21;98010.66;;;7.76;69.95
3260;BME280;22469;48.150;14.004;2022-11-15T02:54:57;98020.78;;;7.79;69.66
3260;BME280;22469;48.150;14.004;2022-11-15T02:57:51;98009.66;;;7.82;70.87
3260;BME280;22469;48.150;14.004;2022-11-15T03:00:24;98014.75;;;7.83;70.28
3260;BME280;22469;48.150;14.004;2022-11-15T03:06:43;98013.03;;;7.84;70.02
3260;BME280;22469;48.150;14.004;2022-11-15T03:09:33;98013.13;;;7.79;69.89
3260;BME280;22469;48.150;14.004;2022-11-15T03:15:17;98019.03;;;7.83;69.74
3260;BME280;22469;48.150;14.004;2022-11-15T03:18:22;98010.47;;;7.84;69.60
3260;BME280;22469;48.150;14.004;2022-11-15T03:20:58;98004.59;;;7.80;69.69
3260;BME280;22469;48.150;14.004;2022-11-15T03:23:29;98006.28;;;7.81;69.49
3260;BME280;22469;48.150;14.004;2022-11-15T03:25:58;97996.94;;;7.80;69.30
3260;BME280;22469;48.150;14.004;2022-11-15T03:28:54;97994.34;;;7.82;69.13
3260;BME280;22469;48.150;14.004;2022-11-15T03:31:27;97990.22;;;7.76;69.39
3260;BME280;22469;48.150;14.004;2022-11-15T03:37:08;97998.78;;;7.72;69.17
3260;BME280;22469;48.150;14.004;2022-11-15T03:39:38;97991.13;;;7.72;69.53
3260;BME280;22469;48.150;14.004;2022-11-15T03:42:27;97984.34;;;7.73;69.61
3260;BME280;22469;48.150;14.004;2022-11-15T03:45:08;97986.84;;;7.74;69.67
3260;BME280;22469;48.150;14.004;2022-11-15T03:47:51;97980.00;;;7.76;69.52
3260;BME280;22469;48.150;14.004;2022-11-15T03:50:24;97980.97;;;7.71;69.12
3260;BME280;22469;48.150;14.004;2022-11-15T03:52:54;97975.28;;;7.58;69.03
3260;BME280;22469;48.150;14.004;2022-11-15T03:55:21;97977.03;;;7.56;69.36
3260;BME280;22469;48.150;14.004;2022-11-15T03:57:51;97979.59;;;7.54;69.41
3260;BME280;22469;48.150;14.004;2022-11-15T04:00:20;97983.75;;;7.58;69.27
3260;BME280;22469;48.150;14.004;2022-11-15T04:02:47;97987.19;;;7.57;69.99
3260;BME280;22469;48.150;14.004;2022-11-15T04:05:14;97977.00;;;7.57;69.94
3260;BME280;22469;48.150;14.004;2022-11-15T04:07:41;97976.16;;;7.55;70.25
3260;BME280;22469;48.150;14.004;2022-11-15T04:10:10;97972.72;;;7.58;70.38
3260;BME280;22469;48.150;14.004;2022-11-15T04:12:41;97974.41;;;7.59;69.96
3260;BME280;22469;48.150;14.004;2022-11-15T04:15:12;97972.66;;;7.61;70.84
3260;BME280;22469;48.150;14.004;2022-11-15T04:17:42;97968.38;;;7.63;70.51
3260;BME280;22469;48.150;14.004;2022-11-15T04:23:04;97967.38;;;7.69;70.42
3260;BME280;22469;48.150;14.004;2022-11-15T04:25:52;97964.09;;;7.64;71.08
3260;BME280;22469;48.150;14.004;2022-11-15T04:28:21;97963.22;;;7.66;70.61
3260;BME280;22469;48.150;14.004;2022-11-15T04:30:48;97962.31;;;7.67;70.73
3260;BME280;22469;48.150;14.004;2022-11-15T04:33:15;97956.34;;;7.68;70.70
3260;BME280;22469;48.150;14.004;2022-11-15T04:35:42;97951.34;;;7.64;70.96
3260;BME280;22469;48.150;14.004;2022-11-15T04:38:11;97943.63;;;7.65;71.32
3260;BME280;22469;48.150;14.004;2022-11-15T04:40:38;97945.28;;;7.68;71.07
3260;BME280;22469;48.150;14.004;2022-11-15T04:43:05;97940.06;;;7.72;71.16
3260;BME280;22469;48.150;14.004;2022-11-15T04:45:32;97935.06;;;7.69;71.23
3260;BME280;22469;48.150;14.004;2022-11-15T04:47:59;97935.16;;;7.65;71.88
3260;BME280;22469;48.150;14.004;2022-11-15T04:50:26;97945.34;;;7.65;71.78
3260;BME280;22469;48.150;14.004;2022-11-15T04:52:53;97934.31;;;7.64;72.09
3260;BME280;22469;48.150;14.004;2022-11-15T04:55:21;97929.97;;;7.69;71.69
3260;BME280;22469;48.150;14.004;2022-11-15T04:57:57;97936.63;;;7.75;71.87
3260;BME280;22469;48.150;14.004;2022-11-15T05:00:28;97929.72;;;7.80;72.32
3260;BME280;22469;48.150;14.004;2022-11-15T05:02:57;97934.72;;;7.84;71.79
3260;BME280;22469;48.150;14.004;2022-11-15T05:05:42;97926.22;;;7.84;71.71
3260;BME280;22469;48.150;14.004;2022-11-15T05:08:09;97937.38;;;7.80;72.16
3260;BME280;22469;48.150;14.004;2022-11-15T05:10:36;97940.00;;;7.77;71.76
3260;BME280;22469;48.150;14.004;2022-11-15T05:13:03;97934.19;;;7.70;71.83
3260;BME280;22469;48.150;14.004;2022-11-15T05:15:30;97936.75;;;7.69;71.79
3260;BME280;22469;48.150;14.004;2022-11-15T05:17:58;97938.53;;;7.65;71.99
3260;BME280;22469;48.150;14.004;2022-11-15T05:20:27;97939.53;;;7.58;72.34
3260;BME280;22469;48.150;14.004;2022-11-15T05:22:54;97930.16;;;7.60;72.37
3260;BME280;22469;48.150;14.004;2022-11-15T05:25:22;97931.88;;;7.59;72.71
3260;BME280;22469;48.150;14.004;2022-11-15T05:27:49;97932.53;;;7.68;72.43
3260;BME280;22469;48.150;14.004;2022-11-15T05:30:17;97923.06;;;7.73;72.85
3260;BME280;22469;48.150;14.004;2022-11-15T05:32:44;97916.56;;;7.58;72.54
3260;BME280;22469;48.150;14.004;2022-11-15T05:35:50;97920.88;;;7.56;72.28
3260;BME280;22469;48.150;14.004;2022-11-15T05:38:23;97930.34;;;7.51;72.28
3260;BME280;22469;48.150;14.004;2022-11-15T05:40:50;97926.91;;;7.52;72.51
3260;BME280;22469;48.150;14.004;2022-11-15T05:43:18;97933.06;;;7.42;72.60
3260;BME280;22469;48.150;14.004;2022-11-15T05:45:44;97926.56;;;7.28;73.18
3260;BME280;22469;48.150;14.004;2022-11-15T05:48:12;97930.78;;;7.28;73.53
3260;BME280;22469;48.150;14.004;2022-11-15T05:50:41;97930.03;;;7.24;73.70
3260;BME280;22469;48.150;14.004;2022-11-15T05:53:14;97930.16;;;7.18;73.79
3260;BME280;22469;48.150;14.004;2022-11-15T05:55:43;97926.56;;;7.28;73.79
3260;BME280;22469;48.150;14.004;2022-11-15T05:58:11;97924.91;;;7.24;73.70
3260;BME280;22469;48.150;14.004;2022-11-15T06:00:38;97911.44;;;7.19;73.65
3260;BME280;22469;48.150;14.004;2022-11-15T06:03:05;97920.88;;;7.14;73.86
3260;BME280;22469;48.150;14.004;2022-11-15T06:05:32;97921.84;;;7.08;73.71
3260;BME280;22469;48.150;14.004;2022-11-15T06:08:00;97925.13;;;7.13;74.01
3260;BME280;22469;48.150;14.004;2022-11-15T06:10:27;97908.94;;;7.16;74.03
3260;BME280;22469;48.150;14.004;2022-11-15T06:13:02;97907.00;;;7.29;73.90
3260;BME280;22469;48.150;14.004;2022-11-15T06:15:32;97909.31;;;7.38;73.25
3260;BME280;22469;48.150;14.004;2022-11-15T06:18:03;97909.19;;;7.46;74.17
3260;BME280;22469;48.150;14.004;2022-11-15T06:20:30;97911.59;;;7.52;73.90
3260;BME280;22469;48.150;14.004;2022-11-15T06:23:02;97908.97;;;7.55;73.67
3260;BME280;22469;48.150;14.004;2022-11-15T06:25:30;97906.34;;;7.59;73.35
3260;BME280;22469;48.150;14.004;2022-11-15T06:27:58;97902.91;;;7.60;73.53
3260;BME280;22469;48.150;14.004;2022-11-15T06:30:26;97907.13;;;7.62;73.69
3260;BME280;22469;48.150;14.004;2022-11-15T06:33:04;97906.16;;;7.67;73.83
3260;BME280;22469;48.150;14.004;2022-11-15T06:35:33;97909.56;;;7.68;73.61
3260;BME280;22469;48.150;14.004;2022-11-15T06:38:07;97914.84;;;7.60;73.45
3260;BME280;22469;48.150;14.004;2022-11-15T06:40:37;97910.56;;;7.60;73.92
3260;BME280;22469;48.150;14.004;2022-11-15T06:43:05;97907.13;;;7.63;73.80
3260;BME280;22469;48.150;14.004;2022-11-15T06:45:33;97901.13;;;7.64;73.74
3260;BME280;22469;48.150;14.004;2022-11-15T06:48:00;97913.94;;;7.63;73.53
3260;BME280;22469;48.150;14.004;2022-11-15T06:50:27;97903.63;;;7.66;74.02
3260;BME280;22469;48.150;14.004;2022-11-15T06:52:54;97906.22;;;7.64;73.70
3260;BME280;22469;48.150;14.004;2022-11-15T06:55:21;97909.53;;;7.69;73.48
3260;BME280;22469;48.150;14.004;2022-11-15T06:57:49;97909.38;;;7.75;73.92
3260;BME280;22469;48.150;14.004;2022-11-15T07:00:21;97905.91;;;7.79;73.93
3260;BME280;22469;48.150;14.004;2022-11-15T07:02:49;97907.44;;;7.87;73.89
3260;BME280;22469;48.150;14.004;2022-11-15T07:05:16;97914.16;;;7.89;74.08
3260;BME280;22469;48.150;14.004;2022-11-15T07:07:51;97914.03;;;7.95;74.06
3260;BME280;22469;48.150;14.004;2022-11-15T07:10:20;97919.22;;;7.92;73.52
3260;BME280;22469;48.150;14.004;2022-11-15T07:12:48;97919.97;;;7.97;73.78
3260;BME280;22469;48.150;14.004;2022-11-15T07:15:17;97916.47;;;8.00;73.74
3260;BME280;22469;48.150;14.004;2022-11-15T07:17:44;97915.56;;;8.04;73.77
3260;BME280;22469;48.150;14.004;2022-11-15T07:20:12;97911.94;;;8.13;73.62
3260;BME280;22469;48.150;14.004;2022-11-15T07:22:40;97910.25;;;8.12;73.66
3260;BME280;22469;48.150;14.004;2022-11-15T07:25:09;97905.97;;;8.12;73.76
3260;BME280;22469;48.150;14.004;2022-11-15T07:27:36;97905.78;;;8.20;73.68
3260;BME280;22469;48.150;14.004;2022-11-15T07:30:04;97900.53;;;8.27;73.70
3260;BME280;22469;48.150;14.004;2022-11-15T07:32:32;97901.19;;;8.34;74.03
3260;BME280;22469;48.150;14.004;2022-11-15T07:35:01;97900.16;;;8.43;74.38
3260;BME280;22469;48.150;14.004;2022-11-15T07:37:28;97901.66;;;8.51;73.68
3260;BME280;22469;48.150;14.004;2022-11-15T07:39:55;97899.72;;;8.60;74.36
3260;BME280;22469;48.150;14.004;2022-11-15T07:42:22;97902.09;;;8.67;74.35
3260;BME280;22469;48.150;14.004;2022-11-15T07:45:08;97905.25;;;8.77;74.24
3260;BME280;22469;48.150;14.004;2022-11-15T07:47:35;97899.16;;;8.81;74.09
3260;BME280;22469;48.150;14.004;2022-11-15T07:50:02;97892.25;;;8.85;73.96
3260;BME280;22469;48.150;14.004;2022-11-15T07:52:29;97896.44;;;8.87;74.22
3260;BME280;22469;48.150;14.004;2022-11-15T07:54:56;97891.69;;;8.73;73.99
3260;BME280;22469;48.150;14.004;2022-11-15T07:57:23;97890.09;;;8.69;74.59
3260;BME280;22469;48.150;14.004;2022-11-15T07:59:50;97894.19;;;8.76;74.58
3260;BME280;22469;48.150;14.004;2022-11-15T08:02:17;97895.84;;;8.77;74.20
3260;BME280;22469;48.150;14.004;2022-11-15T08:04:45;97891.50;;;8.81;74.45
3260;BME280;22469;48.150;14.004;2022-11-15T08:07:12;97896.38;;;8.89;74.57
3260;BME280;22469;48.150;14.004;2022-11-15T08:09:40;97890.34;;;8.93;74.86
3260;BME280;22469;48.150;14.004;2022-11-15T08:12:07;97894.47;;;8.97;74.47
3260;BME280;22469;48.150;14.004;2022-11-15T08:14:35;97893.66;;;8.95;74.43
3260;BME280;22469;48.150;14.004;2022-11-15T08:17:02;97881.59;;;9.00;74.55
3260;BME280;22469;48.150;14.004;2022-11-15T08:19:29;97876.56;;;8.97;74.47
3260;BME280;22469;48.150;14.004;2022-11-15T08:21:56;97882.44;;;9.00;74.42
3260;BME280;22469;48.150;14.004;2022-11-15T08:24:23;97877.19;;;9.05;74.55
3260;BME280;22469;48.150;14.004;2022-11-15T08:26:50;97878.78;;;9.09;74.17
3260;BME280;22469;48.150;14.004;2022-11-15T08:29:17;97877.16;;;9.07;74.21
3260;BME280;22469;48.150;14.004;2022-11-15T08:31:44;97873.63;;;9.11;74.33
3260;BME280;22469;48.150;14.004;2022-11-15T08:34:12;97880.25;;;9.18;74.64
3260;BME280;22469;48.150;14.004;2022-11-15T08:36:39;97875.78;;;9.24;73.91
3260;BME280;22469;48.150;14.004;2022-11-15T08:39:11;97878.53;;;9.18;74.16
3260;BME280;22469;48.150;14.004;2022-11-15T08:41:39;97867.50;;;9.16;74.33
3260;BME280;22469;48.150;14.004;2022-11-15T08:44:06;97874.03;;;9.27;74.29
3260;BME280;22469;48.150;14.004;2022-11-15T08:46:33;97863.56;;;9.34;74.12
3260;BME280;22469;48.150;14.004;2022-11-15T08:49:00;97860.84;;;9.40;74.06
3260;BME280;22469;48.150;14.004;2022-11-15T08:51:27;97874.25;;;9.48;74.29
3260;BME280;22469;48.150;14.004;2022-11-15T08:53:54;97879.97;;;9.57;73.83
3260;BME280;22469;48.150;14.004;2022-11-15T08:56:21;97882.34;;;9.63;74.14
3260;BME280;22469;48.150;14.004;2022-11-15T08:58:48;97886.53;;;9.65;74.16
3260;BME280;22469;48.150;14.004;2022-11-15T09:01:20;97879.53;;;9.70;73.98
3260;BME280;22469;48.150;14.004;2022-11-15T09:03:49;97885.41;;;9.74;73.77
3260;BME280;22469;48.150;14.004;2022-11-15T09:06:16;97875.91;;;9.78;73.62
3260;BME280;22469;48.150;14.004;2022-11-15T09:08:43;97880.09;;;9.80;73.86
3260;BME280;22469;48.150;14.004;2022-11-15T09:11:17;97874.13;;;9.81;73.68
3260;BME280;22469;48.150;14.004;2022-11-15T09:13:46;97873.50;;;9.73;73.59
3260;BME280;22469;48.150;14.004;2022-11-15T09:16:13;97867.38;;;9.77;73.66
3260;BME280;22469;48.150;14.004;2022-11-15T09:18:42;97868.88;;;9.84;73.55
3260;BME280;22469;48.150;14.004;2022-11-15T09:21:09;97872.97;;;9.90;73.96
3260;BME280;22469;48.150;14.004;2022-11-15T09:23:36;97865.25;;;9.91;73.36
3260;BME280;22469;48.150;14.004;2022-11-15T09:26:04;97863.47;;;9.93;73.56
3260;BME280;22469;48.150;14.004;2022-11-15T09:28:32;97865.78;;;10.01;73.36
3260;BME280;22469;48.150;14.004;2022-11-15T09:31:03;97870.03;;;10.02;73.19
3260;BME280;22469;48.150;14.004;2022-11-15T09:33:31;97863.00;;;10.09;73.48
3260;BME280;22469;48.150;14.004;2022-11-15T09:36:07;97858.63;;;10.11;73.33
3260;BME280;22469;48.150;14.004;2022-11-15T09:38:35;97853.69;;;10.05;73.34
3260;BME280;22469;48.150;14.004;2022-11-15T09:50:09;97834.91;;;10.06;74.16
3260;BME280;22469;48.150;14.004;2022-11-15T09:52:42;97831.63;;;10.01;73.54
3260;BME280;22469;48.150;14.004;2022-11-15T09:55:12;97835.19;;;9.96;73.84
3260;BME280;22469;48.150;14.004;2022-11-15T09:57:56;97831.38;;;10.08;74.05
3260;BME280;22469;48.150;14.004;2022-11-15T10:00:48;97831.69;;;9.99;74.26
3260;BME280;22469;48.150;14.004;2022-11-15T10:03:34;97834.19;;;10.01;74.18
3260;BME280;22469;48.150;14.004;2022-11-15T10:06:05;97830.84;;;9.99;74.21
3260;BME280;22469;48.150;14.004;2022-11-15T10:11:49;97818.59;;;9.82;74.41
3260;BME280;22469;48.150;14.004;2022-11-15T10:14:25;97813.06;;;9.94;74.47
3260;BME280;22469;48.150;14.004;2022-11-15T10:25:21;97804.38;;;9.98;74.39
3260;BME280;22469;48.150;14.004;2022-11-15T10:27:57;97794.47;;;10.14;74.05
3260;BME280;22469;48.150;14.004;2022-11-15T10:30:37;97794.47;;;10.14;73.84
3260;BME280;22469;48.150;14.004;2022-11-15T10:33:44;97775.38;;;10.23;73.79
3260;BME280;22469;48.150;14.004;2022-11-15T10:41:38;97749.50;;;10.05;74.33
3260;BME280;22469;48.150;14.004;2022-11-15T10:46:45;97738.16;;;10.12;74.31
3260;BME280;22469;48.150;14.004;2022-11-15T10:49:27;97735.97;;;10.25;74.53
3260;BME280;22469;48.150;14.004;2022-11-15T10:52:17;97725.16;;;10.42;74.37
3260;BME280;22469;48.150;14.004;2022-11-15T10:57:53;97713.41;;;10.36;74.19
3260;BME280;22469;48.150;14.004;2022-11-15T11:00:59;97723.28;;;10.47;73.79
3260;BME280;22469;48.150;14.004;2022-11-15T11:03:29;97727.50;;;10.48;73.46
3260;BME280;22469;48.150;14.004;2022-11-15T11:06:15;97721.03;;;10.61;72.90
3260;BME280;22469;48.150;14.004;2022-11-15T11:09:00;97720.81;;;10.67;71.64
3260;BME280;22469;48.150;14.004;2022-11-15T11:11:48;97715.59;;;10.71;72.19
3260;BME280;22469;48.150;14.004;2022-11-15T11:14:25;97711.31;;;10.70;72.11
3260;BME280;22469;48.150;14.004;2022-11-15T11:17:17;97712.13;;;10.72;71.93
3260;BME280;22469;48.150;14.004;2022-11-15T11:55:28;97649.84;;;10.68;72.60
3260;BME280;22469;48.150;14.004;2022-11-15T12:00:44;97635.25;;;10.70;72.38
3260;BME280;22469;48.150;14.004;2022-11-15T12:03:32;97642.25;;;10.65;72.68
3260;BME280;22469;48.150;14.004;2022-11-15T12:09:54;97614.47;;;10.54;73.32
3260;BME280;22469;48.150;14.004;2022-11-15T12:12:47;97601.78;;;10.28;74.31
3260;BME280;22469;48.150;14.004;2022-11-15T12:15:25;97595.25;;;9.95;75.68
3260;BME280;22469;48.150;14.004;2022-11-15T12:17:57;97597.00;;;9.95;75.58
3260;BME280;22469;48.150;14.004;2022-11-15T12:20:33;97594.41;;;10.18;74.97
3260;BME280;22469;48.150;14.004;2022-11-15T12:23:14;97590.41;;;10.35;74.42
3260;BME280;22469;48.150;14.004;2022-11-15T12:26:22;97592.09;;;10.36;73.76
3260;BME280;22469;48.150;14.004;2022-11-15T12:28:53;97596.22;;;10.40;73.43
3260;BME280;22469;48.150;14.004;2022-11-15T12:36:47;97589.47;;;10.59;72.97
3260;BME280;22469;48.150;14.004;2022-11-15T12:39:16;97593.41;;;10.68;72.81
3260;BME280;22469;48.150;14.004;2022-11-15T12:47:22;97581.38;;;10.70;72.29
3260;BME280;22469;48.150;14.004;2022-11-15T12:49:51;97571.25;;;10.67;72.50
3260;BME280;22469;48.150;14.004;2022-11-15T12:52:19;97571.16;;;10.68;72.34
3260;BME280;22469;48.150;14.004;2022-11-15T12:54:52;97583.16;;;10.68;72.60
3260;BME280;22469;48.150;14.004;2022-11-15T12:57:34;97576.97;;;10.74;72.25
3260;BME280;22469;48.150;14.004;2022-11-15T13:03:20;97559.16;;;10.69;72.37
3260;BME280;22469;48.150;14.004;2022-11-15T13:05:57;97560.66;;;10.75;72.29
3260;BME280;22469;48.150;14.004;2022-11-15T13:08:43;97566.56;;;10.77;72.22
3260;BME280;22469;48.150;14.004;2022-11-15T13:11:44;97557.88;;;10.81;72.57
3260;BME280;22469;48.150;14.004;2022-11-15T13:30:59;97535.56;;;10.61;73.06
3260;BME280;22469;48.150;14.004;2022-11-15T13:33:47;97536.28;;;10.64;73.24
3260;BME280;22469;48.150;14.004;2022-11-15T13:38:59;97525.50;;;10.77;72.86
3260;BME280;22469;48.150;14.004;2022-11-15T13:41:52;97526.16;;;10.82;72.79
3260;BME280;22469;48.150;14.004;2022-11-15T13:44:22;97514.88;;;10.86;72.70
3260;BME280;22469;48.150;14.004;2022-11-15T13:47:06;97527.34;;;10.95;72.48
3260;BME280;22469;48.150;14.004;2022-11-15T13:49:39;97523.94;;;10.95;72.53
3260;BME280;22469;48.150;14.004;2022-11-15T13:52:11;97515.25;;;10.97;72.34
3260;BME280;22469;48.150;14.004;2022-11-15T13:54:47;97505.88;;;10.98;72.00
3260;BME280;22469;48.150;14.004;2022-11-15T13:57:24;97504.41;;;10.90;72.13
3260;BME280;22469;48.150;14.004;2022-11-15T14:00:06;97499.38;;;10.89;72.12
3260;BME280;22469;48.150;14.004;2022-11-15T14:02:51;97496.69;;;10.92;72.46
3260;BME280;22469;48.150;14.004;2022-11-15T14:05:22;97485.97;;;10.82;72.36
3260;BME280;22469;48.150;14.004;2022-11-15T14:10:47;97474.50;;;10.49;73.74
3260;BME280;22469;48.150;14.004;2022-11-15T14:13:29;97477.97;;;10.48;73.56
3260;BME280;22469;48.150;14.004;2022-11-15T14:16:20;97480.09;;;10.58;73.59
3260;BME280;22469;48.150;14.004;2022-11-15T14:18:52;97481.72;;;10.61;73.47
3260;BME280;22469;48.150;14.004;2022-11-15T14:21:20;97474.59;;;10.67;72.92
3260;BME280;22469;48.150;14.004;2022-11-15T14:23:47;97475.75;;;10.60;73.67
3260;BME280;22469;48.150;14.004;2022-11-15T14:26:47;97483.19;;;10.66;72.97
3260;BME280;22469;48.150;14.004;2022-11-15T14:29:28;97485.63;;;10.70;72.93
3260;BME280;22469;48.150;14.004;2022-11-15T14:32:15;97484.63;;;10.74;72.98
3260;BME280;22469;48.150;14.004;2022-11-15T14:34:57;97480.25;;;10.76;72.91
3260;BME280;22469;48.150;14.004;2022-11-15T14:37:30;97484.47;;;10.77;72.84
3260;BME280;22469;48.150;14.004;2022-11-15T14:40:02;97473.78;;;10.67;73.22
3260;BME280;22469;48.150;14.004;2022-11-15T14:42:31;97477.72;;;10.54;73.43
3260;BME280;22469;48.150;14.004;2022-11-15T14:44:58;97469.44;;;10.47;73.36
3260;BME280;22469;48.150;14.004;2022-11-15T14:47:25;97476.69;;;10.37;73.12
3260;BME280;22469;48.150;14.004;2022-11-15T14:49:52;97463.84;;;10.37;73.61
3260;BME280;22469;48.150;14.004;2022-11-15T14:52:31;97462.00;;;10.41;73.55
3260;BME280;22469;48.150;14.004;2022-11-15T14:55:04;97457.78;;;10.40;73.70
3260;BME280;22469;48.150;14.004;2022-11-15T14:57:42;97463.75;;;10.40;73.52
3260;BME280;22469;48.150;14.004;2022-11-15T15:00:09;97463.47;;;10.25;74.68
3260;BME280;22469;48.150;14.004;2022-11-15T15:02:37;97460.19;;;10.21;74.42
3260;BME280;22469;48.150;14.004;2022-11-15T15:07:47;97462.31;;;10.33;74.27
3260;BME280;22469;48.150;14.004;2022-11-15T15:10:16;97454.25;;;10.42;74.26
3260;BME280;22469;48.150;14.004;2022-11-15T15:13:04;97450.72;;;10.45;73.95
3260;BME280;22469;48.150;14.004;2022-11-15T15:15:34;97451.31;;;10.52;74.03
3260;BME280;22469;48.150;14.004;2022-11-15T15:18:03;97461.19;;;10.61;73.70
3260;BME280;22469;48.150;14.004;2022-11-15T15:20:32;97456.91;;;10.61;73.52
3260;BME280;22469;48.150;14.004;2022-11-15T15:22:59;97450.03;;;10.62;73.24
3260;BME280;22469;48.150;14.004;2022-11-15T15:27:59;97452.59;;;10.19;74.28
3260;BME280;22469;48.150;14.004;2022-11-15T15:30:29;97460.31;;;10.18;74.77
3260;BME280;22469;48.150;14.004;2022-11-15T15:32:57;97452.09;;;10.10;74.95
3260;BME280;22469;48.150;14.004;2022-11-15T15:35:32;97454.34;;;10.17;74.79
3260;BME280;22469;48.150;14.004;2022-11-15T15:38:00;97453.34;;;10.21;74.40
3260;BME280;22469;48.150;14.004;2022-11-15T15:40:29;97450.13;;;10.16;74.65
3260;BME280;22469;48.150;14.004;2022-11-15T15:42:58;97437.91;;;10.01;74.62
3260;BME280;22469;48.150;14.004;2022-11-15T15:45:26;97444.88;;;9.97;75.17
3260;BME280;22469;48.150;14.004;2022-11-15T15:47:55;97448.03;;;9.82;76.17
3260;BME280;22469;48.150;14.004;2022-11-15T15:52:58;97445.59;;;10.01;75.47
3260;BME280;22469;48.150;14.004;2022-11-15T15:55:27;97451.19;;;10.11;74.83
3260;BME280;22469;48.150;14.004;2022-11-15T15:57:55;97451.03;;;10.15;75.08
3260;BME280;22469;48.150;14.004;2022-11-15T16:00:24;97447.16;;;9.83;76.09